logo
Search for airport 
image banner adimage banner adimage banner ad
image banner ad

YBDA - Bedarra Island

Located in Dunk, Australia

ICAO - , IATA -

Data provided by Airmate  

General information

Coordinates: S18°0'30" E146°9'12"
Elevation is 54 feet MSL.
Magnetic variation is 7° East
View others Airports in Queensland

Operational data

Special qualification required
Current time UTC:
Current local time:
Weather at : - ( 0 km )
METAR: PAOU 171306Z AUTO 30006KT 4SM -RA BR SCT005 OVC012 07/07 A2994 RMK AO2 PNO $
View NOTAMs / SUP AIP / TFR affecting this airport [VIEW]
Communications frequencies: [VIEW]

Runways:

Airport contact information

Address: Dunk Australia

Satellite view of YBDA